sensor_id;sensor_type;location;lat;lon;timestamp;pressure;altitude;pressure_sealevel;temperature;humidity
6345;BME280;3205;42.666;23.264;2023-03-23T00:01:19;94306.72;;;5.06;100.00
6345;BME280;3205;42.666;23.264;2023-03-23T00:03:48;94305.78;;;5.02;100.00
6345;BME280;3205;42.666;23.264;2023-03-23T00:06:15;94303.09;;;4.93;100.00
6345;BME280;3205;42.666;23.264;2023-03-23T00:08:44;94295.84;;;4.90;100.00
6345;BME280;3205;42.666;23.264;2023-03-23T00:11:13;94297.66;;;4.90;100.00
6345;BME280;3205;42.666;23.264;2023-03-23T00:13:41;94294.59;;;4.88;100.00
6345;BME280;3205;42.666;23.264;2023-03-23T00:16:07;94295.00;;;4.81;100.00
6345;BME280;3205;42.666;23.264;2023-03-23T00:18:44;94292.22;;;4.78;100.00
6345;BME280;3205;42.666;23.264;2023-03-23T00:21:10;94298.03;;;4.75;100.00
6345;BME280;3205;42.666;23.264;2023-03-23T00:23:36;94307.88;;;4.69;100.00
6345;BME280;3205;42.666;23.264;2023-03-23T00:26:03;94301.06;;;4.68;100.00
6345;BME280;3205;42.666;23.264;2023-03-23T00:28:30;94302.16;;;4.67;100.00
6345;BME280;3205;42.666;23.264;2023-03-23T00:30:57;94310.00;;;4.67;100.00
6345;BME280;3205;42.666;23.264;2023-03-23T00:33:25;94304.41;;;4.60;100.00
6345;BME280;3205;42.666;23.264;2023-03-23T00:35:52;94304.41;;;4.60;100.00
6345;BME280;3205;42.666;23.264;2023-03-23T00:38:18;94308.38;;;4.58;100.00
6345;BME280;3205;42.666;23.264;2023-03-23T00:40:45;94311.75;;;4.58;100.00
6345;BME280;3205;42.666;23.264;2023-03-23T00:43:12;94315.47;;;4.57;100.00
6345;BME280;3205;42.666;23.264;2023-03-23T00:45:40;94309.09;;;4.72;100.00
6345;BME280;3205;42.666;23.264;2023-03-23T00:48:06;94312.50;;;4.72;100.00
6345;BME280;3205;42.666;23.264;2023-03-23T00:50:32;94312.78;;;4.71;100.00
6345;BME280;3205;42.666;23.264;2023-03-23T00:52:58;94312.66;;;4.76;100.00
6345;BME280;3205;42.666;23.264;2023-03-23T00:55:25;94313.63;;;4.80;100.00
6345;BME280;3205;42.666;23.264;2023-03-23T00:57:51;94316.84;;;4.77;100.00
6345;BME280;3205;42.666;23.264;2023-03-23T01:00:18;94324.66;;;4.90;100.00
6345;BME280;3205;42.666;23.264;2023-03-23T01:02:45;94310.34;;;4.96;100.00
6345;BME280;3205;42.666;23.264;2023-03-23T01:05:12;94320.34;;;4.94;100.00
6345;BME280;3205;42.666;23.264;2023-03-23T01:07:38;94321.94;;;5.04;100.00
6345;BME280;3205;42.666;23.264;2023-03-23T01:10:05;94319.97;;;5.09;100.00
6345;BME280;3205;42.666;23.264;2023-03-23T01:14:57;94325.41;;;5.13;100.00
6345;BME280;3205;42.666;23.264;2023-03-23T01:17:23;94326.28;;;5.08;100.00
6345;BME280;3205;42.666;23.264;2023-03-23T01:19:50;94311.47;;;5.04;100.00
6345;BME280;3205;42.666;23.264;2023-03-23T01:22:16;94319.63;;;5.02;100.00
6345;BME280;3205;42.666;23.264;2023-03-23T01:24:42;94318.88;;;5.02;100.00
6345;BME280;3205;42.666;23.264;2023-03-23T01:27:08;94320.47;;;4.89;100.00
6345;BME280;3205;42.666;23.264;2023-03-23T01:29:34;94315.06;;;4.86;100.00
6345;BME280;3205;42.666;23.264;2023-03-23T01:32:01;94317.97;;;4.84;100.00
6345;BME280;3205;42.666;23.264;2023-03-23T01:34:27;94313.69;;;4.88;100.00
6345;BME280;3205;42.666;23.264;2023-03-23T01:36:54;94311.41;;;4.95;100.00
6345;BME280;3205;42.666;23.264;2023-03-23T01:39:20;94317.72;;;4.94;100.00
6345;BME280;3205;42.666;23.264;2023-03-23T01:41:46;94317.84;;;4.89;100.00
6345;BME280;3205;42.666;23.264;2023-03-23T01:47:20;94314.44;;;4.89;100.00
6345;BME280;3205;42.666;23.264;2023-03-23T01:49:49;94308.63;;;4.92;100.00
6345;BME280;3205;42.666;23.264;2023-03-23T01:52:20;94307.69;;;4.88;100.00
6345;BME280;3205;42.666;23.264;2023-03-23T01:54:49;94303.34;;;4.83;100.00
6345;BME280;3205;42.666;23.264;2023-03-23T01:57:21;94307.97;;;4.86;100.00
6345;BME280;3205;42.666;23.264;2023-03-23T01:59:50;94300.25;;;4.81;100.00
6345;BME280;3205;42.666;23.264;2023-03-23T02:02:17;94295.84;;;4.68;100.00
6345;BME280;3205;42.666;23.264;2023-03-23T02:04:45;94292.47;;;4.68;100.00
6345;BME280;3205;42.666;23.264;2023-03-23T02:07:12;94298.47;;;4.68;100.00
6345;BME280;3205;42.666;23.264;2023-03-23T02:09:41;94302.44;;;4.66;100.00
6345;BME280;3205;42.666;23.264;2023-03-23T02:12:08;94300.31;;;4.68;100.00
6345;BME280;3205;42.666;23.264;2023-03-23T02:14:34;94298.75;;;4.67;100.00
6345;BME280;3205;42.666;23.264;2023-03-23T02:17:04;94309.50;;;4.65;100.00
6345;BME280;3205;42.666;23.264;2023-03-23T02:19:54;94294.28;;;4.89;100.00
6345;BME280;3205;42.666;23.264;2023-03-23T02:22:48;94297.78;;;5.07;100.00
6345;BME280;3205;42.666;23.264;2023-03-23T02:25:44;94308.66;;;5.22;100.00
6345;BME280;3205;42.666;23.264;2023-03-23T02:28:52;94299.72;;;5.23;100.00
6345;BME280;3205;42.666;23.264;2023-03-23T02:31:42;94303.88;;;5.24;100.00
6345;BME280;3205;42.666;23.264;2023-03-23T02:34:14;94297.09;;;5.23;100.00
6345;BME280;3205;42.666;23.264;2023-03-23T02:36:46;94304.47;;;5.21;100.00
6345;BME280;3205;42.666;23.264;2023-03-23T02:39:19;94301.19;;;5.15;100.00
6345;BME280;3205;42.666;23.264;2023-03-23T02:41:51;94303.03;;;5.07;100.00
6345;BME280;3205;42.666;23.264;2023-03-23T02:44:19;94302.00;;;4.94;100.00
6345;BME280;3205;42.666;23.264;2023-03-23T02:46:45;94298.47;;;4.90;100.00
6345;BME280;3205;42.666;23.264;2023-03-23T02:49:15;94303.94;;;4.80;100.00
6345;BME280;3205;42.666;23.264;2023-03-23T02:51:44;94298.63;;;4.72;100.00
6345;BME280;3205;42.666;23.264;2023-03-23T02:54:12;94297.34;;;4.61;100.00
6345;BME280;3205;42.666;23.264;2023-03-23T02:56:40;94312.38;;;4.55;100.00
6345;BME280;3205;42.666;23.264;2023-03-23T02:59:07;94315.00;;;4.55;100.00
6345;BME280;3205;42.666;23.264;2023-03-23T03:01:59;94313.75;;;4.53;100.00
6345;BME280;3205;42.666;23.264;2023-03-23T03:04:28;94325.16;;;4.57;100.00
6345;BME280;3205;42.666;23.264;2023-03-23T03:07:06;94320.22;;;4.55;100.00
6345;BME280;3205;42.666;23.264;2023-03-23T03:09:42;94322.84;;;4.55;100.00
6345;BME280;3205;42.666;23.264;2023-03-23T03:12:14;94330.34;;;4.48;100.00
6345;BME280;3205;42.666;23.264;2023-03-23T03:14:48;94333.97;;;4.61;100.00
6345;BME280;3205;42.666;23.264;2023-03-23T03:17:20;94334.22;;;4.73;100.00
6345;BME280;3205;42.666;23.264;2023-03-23T03:19:53;94333.69;;;4.84;100.00
6345;BME280;3205;42.666;23.264;2023-03-23T03:22:23;94336.78;;;4.86;100.00
6345;BME280;3205;42.666;23.264;2023-03-23T03:24:55;94345.88;;;4.89;100.00
6345;BME280;3205;42.666;23.264;2023-03-23T03:27:24;94344.97;;;4.71;100.00
6345;BME280;3205;42.666;23.264;2023-03-23T03:29:54;94341.66;;;4.79;100.00
6345;BME280;3205;42.666;23.264;2023-03-23T03:32:35;94351.75;;;4.72;100.00
6345;BME280;3205;42.666;23.264;2023-03-23T03:35:05;94349.13;;;4.72;100.00
6345;BME280;3205;42.666;23.264;2023-03-23T03:37:35;94348.53;;;4.53;100.00
6345;BME280;3205;42.666;23.264;2023-03-23T03:40:04;94353.66;;;4.58;100.00
6345;BME280;3205;42.666;23.264;2023-03-23T03:42:35;94352.50;;;4.51;100.00
6345;BME280;3205;42.666;23.264;2023-03-23T03:45:01;94349.97;;;4.59;100.00
6345;BME280;3205;42.666;23.264;2023-03-23T03:47:27;94344.16;;;4.62;100.00
6345;BME280;3205;42.666;23.264;2023-03-23T03:49:53;94349.38;;;4.62;100.00
6345;BME280;3205;42.666;23.264;2023-03-23T03:52:21;94348.75;;;4.79;100.00
6345;BME280;3205;42.666;23.264;2023-03-23T03:54:48;94352.56;;;4.95;100.00
6345;BME280;3205;42.666;23.264;2023-03-23T03:57:14;94342.97;;;4.90;100.00
6345;BME280;3205;42.666;23.264;2023-03-23T03:59:40;94342.66;;;4.70;100.00
6345;BME280;3205;42.666;23.264;2023-03-23T04:02:06;94342.59;;;4.61;100.00
6345;BME280;3205;42.666;23.264;2023-03-23T04:04:32;94343.66;;;4.60;100.00
6345;BME280;3205;42.666;23.264;2023-03-23T04:06:58;94341.03;;;4.60;100.00
6345;BME280;3205;42.666;23.264;2023-03-23T04:09:25;94335.81;;;4.60;100.00
6345;BME280;3205;42.666;23.264;2023-03-23T04:11:52;94347.66;;;4.58;100.00
6345;BME280;3205;42.666;23.264;2023-03-23T04:14:18;94343.19;;;4.58;100.00
6345;BME280;3205;42.666;23.264;2023-03-23T04:16:44;94337.38;;;4.61;100.00
6345;BME280;3205;42.666;23.264;2023-03-23T04:19:11;94342.41;;;4.58;100.00
6345;BME280;3205;42.666;23.264;2023-03-23T04:21:37;94339.63;;;4.54;100.00
6345;BME280;3205;42.666;23.264;2023-03-23T04:24:04;94337.31;;;4.53;100.00
6345;BME280;3205;42.666;23.264;2023-03-23T04:26:31;94341.75;;;4.52;100.00
6345;BME280;3205;42.666;23.264;2023-03-23T04:28:58;94348.47;;;4.45;100.00
6345;BME280;3205;42.666;23.264;2023-03-23T04:31:24;94343.63;;;4.38;100.00
6345;BME280;3205;42.666;23.264;2023-03-23T04:33:51;94337.03;;;4.41;100.00
6345;BME280;3205;42.666;23.264;2023-03-23T04:36:18;94340.44;;;4.41;100.00
6345;BME280;3205;42.666;23.264;2023-03-23T04:38:45;94343.16;;;4.37;100.00
6345;BME280;3205;42.666;23.264;2023-03-23T04:41:11;94347.66;;;4.44;100.00
6345;BME280;3205;42.666;23.264;2023-03-23T04:43:38;94348.16;;;4.46;100.00
6345;BME280;3205;42.666;23.264;2023-03-23T04:46:07;94344.97;;;4.49;100.00
6345;BME280;3205;42.666;23.264;2023-03-23T04:48:34;94352.81;;;4.49;100.00
6345;BME280;3205;42.666;23.264;2023-03-23T04:51:01;94352.63;;;4.46;100.00
6345;BME280;3205;42.666;23.264;2023-03-23T04:53:29;94358.50;;;4.51;100.00
6345;BME280;3205;42.666;23.264;2023-03-23T04:55:55;94356.38;;;4.53;100.00
6345;BME280;3205;42.666;23.264;2023-03-23T04:58:22;94361.50;;;4.58;100.00
6345;BME280;3205;42.666;23.264;2023-03-23T05:00:50;94363.41;;;4.66;100.00
6345;BME280;3205;42.666;23.264;2023-03-23T05:03:17;94365.81;;;4.76;100.00
6345;BME280;3205;42.666;23.264;2023-03-23T05:05:43;94362.94;;;4.86;100.00
6345;BME280;3205;42.666;23.264;2023-03-23T05:08:12;94369.16;;;4.90;100.00
6345;BME280;3205;42.666;23.264;2023-03-23T05:10:39;94361.84;;;5.01;100.00
6345;BME280;3205;42.666;23.264;2023-03-23T05:13:05;94373.63;;;5.12;100.00
6345;BME280;3205;42.666;23.264;2023-03-23T05:15:31;94371.56;;;5.30;100.00
6345;BME280;3205;42.666;23.264;2023-03-23T05:17:58;94380.78;;;5.50;100.00
6345;BME280;3205;42.666;23.264;2023-03-23T05:20:24;94378.69;;;5.60;100.00
6345;BME280;3205;42.666;23.264;2023-03-23T05:22:50;94382.00;;;5.74;100.00
6345;BME280;3205;42.666;23.264;2023-03-23T05:25:17;94385.31;;;5.88;100.00
6345;BME280;3205;42.666;23.264;2023-03-23T05:27:45;94382.38;;;5.89;100.00
6345;BME280;3205;42.666;23.264;2023-03-23T05:30:15;94393.22;;;5.96;100.00
6345;BME280;3205;42.666;23.264;2023-03-23T05:32:42;94394.28;;;5.95;100.00
6345;BME280;3205;42.666;23.264;2023-03-23T05:35:09;94387.72;;;6.06;100.00
6345;BME280;3205;42.666;23.264;2023-03-23T05:37:35;94399.81;;;6.24;100.00
6345;BME280;3205;42.666;23.264;2023-03-23T05:40:02;94399.38;;;6.39;100.00
6345;BME280;3205;42.666;23.264;2023-03-23T05:42:31;94410.16;;;6.38;100.00
6345;BME280;3205;42.666;23.264;2023-03-23T05:44:58;94419.00;;;6.42;100.00
6345;BME280;3205;42.666;23.264;2023-03-23T05:47:24;94412.78;;;6.38;100.00
6345;BME280;3205;42.666;23.264;2023-03-23T05:49:51;94407.47;;;7.19;100.00
6345;BME280;3205;42.666;23.264;2023-03-23T05:52:19;94410.97;;;7.65;100.00
6345;BME280;3205;42.666;23.264;2023-03-23T05:54:47;94420.97;;;7.88;100.00
6345;BME280;3205;42.666;23.264;2023-03-23T05:57:13;94426.69;;;7.90;100.00
6345;BME280;3205;42.666;23.264;2023-03-23T05:59:40;94430.97;;;8.11;100.00
6345;BME280;3205;42.666;23.264;2023-03-23T06:02:06;94433.09;;;8.55;100.00
6345;BME280;3205;42.666;23.264;2023-03-23T06:04:32;94431.66;;;8.95;100.00
6345;BME280;3205;42.666;23.264;2023-03-23T06:06:58;94447.03;;;9.34;100.00
6345;BME280;3205;42.666;23.264;2023-03-23T06:09:28;94449.97;;;11.64;100.00
6345;BME280;3205;42.666;23.264;2023-03-23T06:11:54;94466.53;;;12.61;100.00
6345;BME280;3205;42.666;23.264;2023-03-23T06:14:20;94474.50;;;12.61;100.00
6345;BME280;3205;42.666;23.264;2023-03-23T06:16:47;94477.00;;;13.69;100.00
6345;BME280;3205;42.666;23.264;2023-03-23T06:19:13;94477.13;;;14.78;100.00
6345;BME280;3205;42.666;23.264;2023-03-23T06:21:40;94482.13;;;16.84;100.00
6345;BME280;3205;42.666;23.264;2023-03-23T06:24:06;94486.53;;;18.48;96.87
6345;BME280;3205;42.666;23.264;2023-03-23T06:26:34;94490.38;;;20.00;74.89
6345;BME280;3205;42.666;23.264;2023-03-23T06:29:01;94487.59;;;20.96;67.84
6345;BME280;3205;42.666;23.264;2023-03-23T06:31:28;94486.16;;;22.75;58.72
6345;BME280;3205;42.666;23.264;2023-03-23T06:33:54;94499.31;;;24.17;53.25
6345;BME280;3205;42.666;23.264;2023-03-23T06:36:21;94496.28;;;25.56;48.79
6345;BME280;3205;42.666;23.264;2023-03-23T06:38:50;94503.50;;;26.64;44.18
6345;BME280;3205;42.666;23.264;2023-03-23T06:41:16;94500.00;;;27.54;43.47
6345;BME280;3205;42.666;23.264;2023-03-23T06:43:43;94509.88;;;28.19;41.27
6345;BME280;3205;42.666;23.264;2023-03-23T06:46:11;94512.84;;;27.66;39.83
6345;BME280;3205;42.666;23.264;2023-03-23T06:48:37;94505.66;;;27.47;40.27
6345;BME280;3205;42.666;23.264;2023-03-23T06:51:04;94515.34;;;26.70;40.58
6345;BME280;3205;42.666;23.264;2023-03-23T06:53:30;94519.91;;;25.88;41.21
6345;BME280;3205;42.666;23.264;2023-03-23T06:55:56;94518.88;;;25.66;41.65
6345;BME280;3205;42.666;23.264;2023-03-23T06:58:22;94518.50;;;25.16;42.44
6345;BME280;3205;42.666;23.264;2023-03-23T07:00:53;94520.09;;;24.78;42.96
6345;BME280;3205;42.666;23.264;2023-03-23T07:03:19;94524.34;;;25.15;42.37
6345;BME280;3205;42.666;23.264;2023-03-23T07:05:46;94524.31;;;25.82;41.66
6345;BME280;3205;42.666;23.264;2023-03-23T07:08:12;94525.22;;;25.75;41.45
6345;BME280;3205;42.666;23.264;2023-03-23T07:10:38;94524.97;;;25.86;41.46
6345;BME280;3205;42.666;23.264;2023-03-23T07:13:04;94523.22;;;26.52;41.16
6345;BME280;3205;42.666;23.264;2023-03-23T07:15:30;94527.47;;;26.65;39.92
6345;BME280;3205;42.666;23.264;2023-03-23T07:17:57;94523.88;;;26.56;40.08
6345;BME280;3205;42.666;23.264;2023-03-23T07:20:25;94528.75;;;26.32;40.12
6345;BME280;3205;42.666;23.264;2023-03-23T07:22:53;94522.34;;;26.42;39.76
6345;BME280;3205;42.666;23.264;2023-03-23T07:25:20;94522.97;;;26.87;39.33
6345;BME280;3205;42.666;23.264;2023-03-23T07:27:46;94516.00;;;27.14;38.90
6345;BME280;3205;42.666;23.264;2023-03-23T07:30:13;94527.72;;;27.24;38.20
6345;BME280;3205;42.666;23.264;2023-03-23T07:32:40;94527.72;;;27.49;37.77
6345;BME280;3205;42.666;23.264;2023-03-23T07:35:08;94531.84;;;28.12;36.83
6345;BME280;3205;42.666;23.264;2023-03-23T07:37:34;94538.41;;;28.69;36.17
6345;BME280;3205;42.666;23.264;2023-03-23T07:40:01;94531.31;;;29.54;35.94
6345;BME280;3205;42.666;23.264;2023-03-23T07:42:40;94539.00;;;29.86;34.02
6345;BME280;3205;42.666;23.264;2023-03-23T07:45:07;94529.56;;;28.78;35.04
6345;BME280;3205;42.666;23.264;2023-03-23T07:47:33;94537.22;;;29.52;35.13
6345;BME280;3205;42.666;23.264;2023-03-23T07:49:59;94539.44;;;29.75;34.75
6345;BME280;3205;42.666;23.264;2023-03-23T07:52:26;94538.69;;;29.84;34.80
6345;BME280;3205;42.666;23.264;2023-03-23T07:54:52;94542.16;;;29.84;34.36
6345;BME280;3205;42.666;23.264;2023-03-23T07:57:18;94544.38;;;29.59;33.41
6345;BME280;3205;42.666;23.264;2023-03-23T07:59:44;94545.91;;;29.08;33.80
6345;BME280;3205;42.666;23.264;2023-03-23T08:02:11;94545.94;;;29.78;33.90
6345;BME280;3205;42.666;23.264;2023-03-23T08:04:37;94545.03;;;30.56;33.32
6345;BME280;3205;42.666;23.264;2023-03-23T08:07:03;94546.13;;;29.83;33.19
6345;BME280;3205;42.666;23.264;2023-03-23T08:09:31;94548.47;;;30.29;33.12
6345;BME280;3205;42.666;23.264;2023-03-23T08:11:57;94552.75;;;30.39;32.39
6345;BME280;3205;42.666;23.264;2023-03-23T08:14:24;94546.97;;;30.91;31.09
6345;BME280;3205;42.666;23.264;2023-03-23T08:16:52;94554.22;;;30.22;32.90
6345;BME280;3205;42.666;23.264;2023-03-23T08:19:20;94549.34;;;29.00;33.11
6345;BME280;3205;42.666;23.264;2023-03-23T08:21:47;94546.00;;;28.74;34.25
6345;BME280;3205;42.666;23.264;2023-03-23T08:24:14;94545.88;;;26.74;34.38
6345;BME280;3205;42.666;23.264;2023-03-23T08:26:41;94542.31;;;25.72;37.18
6345;BME280;3205;42.666;23.264;2023-03-23T08:29:07;94533.50;;;26.00;36.35
6345;BME280;3205;42.666;23.264;2023-03-23T08:31:34;94537.44;;;25.16;38.30
6345;BME280;3205;42.666;23.264;2023-03-23T08:34:01;94536.00;;;26.80;36.11
6345;BME280;3205;42.666;23.264;2023-03-23T08:36:27;94537.56;;;27.92;35.13
6345;BME280;3205;42.666;23.264;2023-03-23T08:38:54;94544.44;;;27.35;34.41
6345;BME280;3205;42.666;23.264;2023-03-23T08:41:20;94536.81;;;29.02;33.13
6345;BME280;3205;42.666;23.264;2023-03-23T08:43:47;94543.84;;;28.91;32.45
6345;BME280;3205;42.666;23.264;2023-03-23T08:46:13;94537.53;;;28.39;31.04
6345;BME280;3205;42.666;23.264;2023-03-23T08:48:39;94558.06;;;25.10;35.40
6345;BME280;3205;42.666;23.264;2023-03-23T08:51:06;94547.78;;;21.67;38.07
6345;BME280;3205;42.666;23.264;2023-03-23T08:53:33;94541.94;;;21.75;39.55
6345;BME280;3205;42.666;23.264;2023-03-23T08:56:03;94540.56;;;20.17;42.31
6345;BME280;3205;42.666;23.264;2023-03-23T08:58:29;94538.28;;;18.90;46.01
6345;BME280;3205;42.666;23.264;2023-03-23T09:00:56;94534.28;;;21.19;43.17
6345;BME280;3205;42.666;23.264;2023-03-23T09:03:22;94538.06;;;21.32;41.63
6345;BME280;3205;42.666;23.264;2023-03-23T09:05:48;94533.03;;;20.77;41.70
6345;BME280;3205;42.666;23.264;2023-03-23T09:08:15;94544.19;;;20.72;43.69
6345;BME280;3205;42.666;23.264;2023-03-23T09:10:41;94532.47;;;21.57;41.59
6345;BME280;3205;42.666;23.264;2023-03-23T09:13:07;94536.59;;;22.12;40.49
6345;BME280;3205;42.666;23.264;2023-03-23T09:15:34;94533.91;;;21.71;42.45
6345;BME280;3205;42.666;23.264;2023-03-23T09:18:01;94526.44;;;22.59;39.92
6345;BME280;3205;42.666;23.264;2023-03-23T09:20:29;94531.28;;;22.71;39.79
6345;BME280;3205;42.666;23.264;2023-03-23T09:22:57;94530.25;;;24.13;37.59
6345;BME280;3205;42.666;23.264;2023-03-23T09:25:24;94542.41;;;23.03;37.48
6345;BME280;3205;42.666;23.264;2023-03-23T09:27:53;94526.97;;;24.44;36.75
6345;BME280;3205;42.666;23.264;2023-03-23T09:30:23;94527.44;;;23.51;37.16
6345;BME280;3205;42.666;23.264;2023-03-23T09:32:49;94519.44;;;22.32;39.21
6345;BME280;3205;42.666;23.264;2023-03-23T09:35:16;94522.94;;;23.19;37.75
6345;BME280;3205;42.666;23.264;2023-03-23T09:37:43;94517.69;;;21.78;40.07
6345;BME280;3205;42.666;23.264;2023-03-23T09:40:12;94510.06;;;22.10;39.35
6345;BME280;3205;42.666;23.264;2023-03-23T09:42:50;94508.81;;;21.81;40.19
6345;BME280;3205;42.666;23.264;2023-03-23T09:45:23;94515.47;;;23.00;38.39
6345;BME280;3205;42.666;23.264;2023-03-23T09:48:11;94516.91;;;20.77;41.45
6345;BME280;3205;42.666;23.264;2023-03-23T09:50:43;94510.34;;;19.64;44.23
6345;BME280;3205;42.666;23.264;2023-03-23T09:53:15;94524.13;;;19.84;43.77
6345;BME280;3205;42.666;23.264;2023-03-23T09:55:43;94514.03;;;18.35;46.80
6345;BME280;3205;42.666;23.264;2023-03-23T09:58:16;94506.22;;;18.02;48.52
6345;BME280;3205;42.666;23.264;2023-03-23T10:00:47;94507.78;;;18.06;49.34
6345;BME280;3205;42.666;23.264;2023-03-23T10:03:18;94504.59;;;17.80;51.07
6345;BME280;3205;42.666;23.264;2023-03-23T10:05:48;94499.53;;;17.65;52.08
6345;BME280;3205;42.666;23.264;2023-03-23T10:08:17;94501.25;;;17.40;53.88
6345;BME280;3205;42.666;23.264;2023-03-23T10:10:50;94511.59;;;16.58;56.61
6345;BME280;3205;42.666;23.264;2023-03-23T10:13:25;94484.91;;;17.45;57.62
6345;BME280;3205;42.666;23.264;2023-03-23T10:15:55;94499.13;;;17.63;52.68
6345;BME280;3205;42.666;23.264;2023-03-23T10:18:27;94502.84;;;16.58;56.08
6345;BME280;3205;42.666;23.264;2023-03-23T10:20:58;94495.97;;;15.91;60.46
6345;BME280;3205;42.666;23.264;2023-03-23T10:23:43;94492.59;;;15.68;63.88
6345;BME280;3205;42.666;23.264;2023-03-23T10:26:21;94492.22;;;15.96;62.47
6345;BME280;3205;42.666;23.264;2023-03-23T10:28:54;94490.78;;;15.72;65.09
6345;BME280;3205;42.666;23.264;2023-03-23T10:31:23;94483.19;;;15.49;68.72
6345;BME280;3205;42.666;23.264;2023-03-23T10:33:52;94488.50;;;15.74;69.21
6345;BME280;3205;42.666;23.264;2023-03-23T10:36:24;94491.38;;;15.62;69.18
6345;BME280;3205;42.666;23.264;2023-03-23T10:38:57;94487.53;;;15.60;70.94
6345;BME280;3205;42.666;23.264;2023-03-23T10:41:24;94474.22;;;15.89;68.96
6345;BME280;3205;42.666;23.264;2023-03-23T10:43:50;94484.66;;;16.31;67.82
6345;BME280;3205;42.666;23.264;2023-03-23T10:46:25;94484.94;;;16.62;67.51
6345;BME280;3205;42.666;23.264;2023-03-23T10:48:54;94481.88;;;16.24;64.38
6345;BME280;3205;42.666;23.264;2023-03-23T10:51:28;94472.56;;;16.11;67.20
6345;BME280;3205;42.666;23.264;2023-03-23T10:53:57;94496.16;;;15.50;67.04
6345;BME280;3205;42.666;23.264;2023-03-23T10:56:26;94476.75;;;15.24;70.49
6345;BME280;3205;42.666;23.264;2023-03-23T10:58:53;94473.53;;;15.63;70.95
6345;BME280;3205;42.666;23.264;2023-03-23T11:01:29;94475.03;;;15.64;68.19
6345;BME280;3205;42.666;23.264;2023-03-23T11:03:56;94482.75;;;15.21;66.38
6345;BME280;3205;42.666;23.264;2023-03-23T11:06:24;94478.50;;;15.39;68.63
6345;BME280;3205;42.666;23.264;2023-03-23T11:08:55;94480.50;;;15.74;67.51
6345;BME280;3205;42.666;23.264;2023-03-23T11:11:26;94477.09;;;16.07;72.49
6345;BME280;3205;42.666;23.264;2023-03-23T11:13:57;94467.13;;;16.00;66.81
6345;BME280;3205;42.666;23.264;2023-03-23T11:16:26;94462.25;;;15.76;66.52
6345;BME280;3205;42.666;23.264;2023-03-23T11:18:53;94470.59;;;16.04;67.27
6345;BME280;3205;42.666;23.264;2023-03-23T11:21:22;94459.81;;;15.64;64.49
6345;BME280;3205;42.666;23.264;2023-03-23T11:23:51;94460.84;;;15.86;67.46
6345;BME280;3205;42.666;23.264;2023-03-23T11:26:21;94445.44;;;16.02;68.15
6345;BME280;3205;42.666;23.264;2023-03-23T11:28:52;94452.63;;;16.01;69.17
6345;BME280;3205;42.666;23.264;2023-03-23T11:31:21;94443.50;;;16.02;67.14
6345;BME280;3205;42.666;23.264;2023-03-23T11:33:52;94438.56;;;15.68;67.71
6345;BME280;3205;42.666;23.264;2023-03-23T11:36:20;94442.63;;;15.59;67.17
6345;BME280;3205;42.666;23.264;2023-03-23T11:38:53;94434.50;;;15.81;68.18
6345;BME280;3205;42.666;23.264;2023-03-23T11:41:23;94429.50;;;16.09;68.38
6345;BME280;3205;42.666;23.264;2023-03-23T11:43:52;94435.94;;;16.04;65.50
6345;BME280;3205;42.666;23.264;2023-03-23T11:46:26;94434.44;;;15.45;68.01
6345;BME280;3205;42.666;23.264;2023-03-23T11:48:59;94424.63;;;15.52;69.94
6345;BME280;3205;42.666;23.264;2023-03-23T11:51:31;94422.25;;;15.44;70.26
6345;BME280;3205;42.666;23.264;2023-03-23T11:54:09;94425.56;;;15.37;69.73
6345;BME280;3205;42.666;23.264;2023-03-23T11:56:38;94420.88;;;15.27;72.50
6345;BME280;3205;42.666;23.264;2023-03-23T11:59:11;94427.00;;;15.31;70.89
6345;BME280;3205;42.666;23.264;2023-03-23T12:01:48;94424.59;;;15.49;73.02
6345;BME280;3205;42.666;23.264;2023-03-23T12:04:30;94421.88;;;15.45;69.52
6345;BME280;3205;42.666;23.264;2023-03-23T12:07:09;94416.72;;;15.59;65.17
6345;BME280;3205;42.666;23.264;2023-03-23T12:09:45;94414.16;;;15.66;65.63
6345;BME280;3205;42.666;23.264;2023-03-23T12:12:21;94408.63;;;15.81;70.67
6345;BME280;3205;42.666;23.264;2023-03-23T12:14:54;94417.41;;;15.82;65.97
6345;BME280;3205;42.666;23.264;2023-03-23T12:17:31;94407.41;;;15.75;67.92
6345;BME280;3205;42.666;23.264;2023-03-23T12:20:11;94411.31;;;15.85;68.22
6345;BME280;3205;42.666;23.264;2023-03-23T12:22:50;94410.41;;;15.70;68.19
6345;BME280;3205;42.666;23.264;2023-03-23T12:28:19;94410.19;;;15.24;70.61
6345;BME280;3205;42.666;23.264;2023-03-23T12:30:54;94405.28;;;15.29;72.26
6345;BME280;3205;42.666;23.264;2023-03-23T12:33:33;94415.28;;;15.36;69.05
6345;BME280;3205;42.666;23.264;2023-03-23T12:36:12;94402.16;;;15.50;68.65
6345;BME280;3205;42.666;23.264;2023-03-23T12:38:53;94397.16;;;15.45;68.94
6345;BME280;3205;42.666;23.264;2023-03-23T12:41:29;94398.09;;;15.30;68.92
6345;BME280;3205;42.666;23.264;2023-03-23T12:44:01;94392.91;;;15.40;69.30
6345;BME280;3205;42.666;23.264;2023-03-23T12:46:52;94398.44;;;15.58;69.84
6345;BME280;3205;42.666;23.264;2023-03-23T12:49:24;94394.53;;;15.48;66.81
6345;BME280;3205;42.666;23.264;2023-03-23T12:51:57;94406.63;;;15.42;69.04
6345;BME280;3205;42.666;23.264;2023-03-23T12:54:28;94391.63;;;15.31;66.94
6345;BME280;3205;42.666;23.264;2023-03-23T12:57:00;94397.84;;;15.42;67.51
6345;BME280;3205;42.666;23.264;2023-03-23T12:59:33;94396.38;;;15.44;67.50
6345;BME280;3205;42.666;23.264;2023-03-23T13:02:08;94383.09;;;15.48;69.62
6345;BME280;3205;42.666;23.264;2023-03-23T13:04:40;94386.78;;;15.69;68.18
6345;BME280;3205;42.666;23.264;2023-03-23T13:07:14;94387.00;;;15.57;69.43
6345;BME280;3205;42.666;23.264;2023-03-23T13:09:49;94387.41;;;15.59;68.16
6345;BME280;3205;42.666;23.264;2023-03-23T13:12:18;94376.72;;;15.56;67.45
6345;BME280;3205;42.666;23.264;2023-03-23T13:14:50;94379.66;;;15.47;67.74
6345;BME280;3205;42.666;23.264;2023-03-23T13:17:26;94370.69;;;15.59;67.52
6345;BME280;3205;42.666;23.264;2023-03-23T13:22:49;94370.84;;;15.72;69.24
6345;BME280;3205;42.666;23.264;2023-03-23T13:25:19;94368.50;;;15.71;69.64
6345;BME280;3205;42.666;23.264;2023-03-23T13:27:59;94363.31;;;15.81;65.73
6345;BME280;3205;42.666;23.264;2023-03-23T13:30:27;94368.25;;;15.79;64.54
6345;BME280;3205;42.666;23.264;2023-03-23T13:33:02;94371.03;;;15.57;64.58